createdAt,value
2018-10-02T00:02:07.409Z,90.90
2018-10-02T00:04:39.285Z,91.00
2018-10-02T00:07:11.119Z,91.10
2018-10-02T00:09:43.694Z,91.00
2018-10-02T00:12:20.604Z,91.20
2018-10-02T00:14:52.898Z,91.20
2018-10-02T00:17:24.960Z,91.10
2018-10-02T00:19:57.083Z,90.90
2018-10-02T00:22:29.306Z,90.60
2018-10-02T00:25:01.117Z,90.50
2018-10-02T00:27:34.121Z,90.40
2018-10-02T00:30:06.938Z,90.60
2018-10-02T00:32:38.789Z,90.50
2018-10-02T00:35:11.569Z,90.50
2018-10-02T00:37:43.545Z,90.60
2018-10-02T00:40:16.392Z,90.60
2018-10-02T00:42:48.867Z,90.80
2018-10-02T00:45:20.769Z,90.90
2018-10-02T00:47:53.551Z,90.90
2018-10-02T00:50:25.721Z,90.80
2018-10-02T00:52:58.593Z,90.80
2018-10-02T00:55:31.298Z,90.70
2018-10-02T00:58:03.210Z,90.70
2018-10-02T01:00:35.148Z,90.80
2018-10-02T01:03:08.032Z,90.80
2018-10-02T01:05:41.052Z,90.80
2018-10-02T01:08:13.145Z,90.90
2018-10-02T01:10:45.290Z,91.10
2018-10-02T01:13:17.302Z,91.20
2018-10-02T01:15:49.253Z,91.10
2018-10-02T01:18:20.936Z,91.30
2018-10-02T01:20:53.018Z,91.30
2018-10-02T01:23:25.447Z,91.20
2018-10-02T01:25:58.116Z,91.30
2018-10-02T01:28:30.155Z,91.40
2018-10-02T01:31:02.972Z,91.50
2018-10-02T01:33:35.047Z,91.50
2018-10-02T01:36:08.659Z,91.60
2018-10-02T01:38:40.998Z,91.40
2018-10-02T01:41:12.928Z,91.30
2018-10-02T01:43:46.035Z,91.20
2018-10-02T01:46:19.110Z,91.40
2018-10-02T01:48:50.806Z,91.60
2018-10-02T01:51:22.684Z,91.60
2018-10-02T01:53:54.662Z,91.60
2018-10-02T01:56:26.693Z,91.60
2018-10-02T01:58:58.553Z,91.50
2018-10-02T02:01:30.695Z,91.40
2018-10-02T02:04:02.407Z,91.20
2018-10-02T02:06:34.160Z,91.30
2018-10-02T02:09:07.135Z,91.10
2018-10-02T02:11:40.039Z,91.00
2018-10-02T02:14:12.012Z,90.50
2018-10-02T02:16:43.864Z,90.40
2018-10-02T02:19:15.891Z,90.20
2018-10-02T02:21:47.721Z,90.30
2018-10-02T02:24:20.167Z,90.40
2018-10-02T02:26:52.056Z,90.50
2018-10-02T02:29:23.957Z,90.10
2018-10-02T02:31:56.065Z,90.40
2018-10-02T02:34:27.793Z,90.50
2018-10-02T02:36:59.634Z,90.50
2018-10-02T02:39:32.490Z,90.30
2018-10-02T02:42:04.357Z,90.20
2018-10-02T02:44:36.236Z,90.00
2018-10-02T02:47:13.780Z,90.20
2018-10-02T02:49:50.679Z,90.00
2018-10-02T02:52:24.638Z,90.30
2018-10-02T02:54:56.895Z,90.30
2018-10-02T02:57:28.949Z,90.50
2018-10-02T03:00:00.808Z,90.50
2018-10-02T03:02:32.922Z,90.60
2018-10-02T03:05:04.968Z,90.50
2018-10-02T03:07:36.878Z,90.60
2018-10-02T03:10:08.786Z,90.50
2018-10-02T03:12:41.084Z,90.40
2018-10-02T03:15:13.245Z,90.30
2018-10-02T03:17:45.305Z,90.70
2018-10-02T03:20:17.308Z,90.80
2018-10-02T03:22:49.230Z,90.80
2018-10-02T03:25:21.444Z,90.70
2018-10-02T03:27:53.401Z,90.40
2018-10-02T03:30:25.450Z,90.40
2018-10-02T03:32:57.667Z,90.20
2018-10-02T03:35:29.903Z,90.20
2018-10-02T03:38:01.912Z,90.30
2018-10-02T03:40:34.070Z,90.80
2018-10-02T03:43:06.070Z,91.00
2018-10-02T03:45:38.868Z,91.30
2018-10-02T03:48:11.039Z,90.80
2018-10-02T03:50:43.229Z,90.80
2018-10-02T03:53:15.936Z,90.70
2018-10-02T03:55:47.969Z,90.60
2018-10-02T03:58:20.219Z,90.70
2018-10-02T04:00:52.247Z,90.70
2018-10-02T04:03:24.254Z,90.60
2018-10-02T04:05:56.310Z,90.60
2018-10-02T04:08:28.287Z,90.50
2018-10-02T04:11:01.583Z,90.40
2018-10-02T04:13:33.617Z,90.40
2018-10-02T04:16:06.331Z,90.50
2018-10-02T04:18:38.744Z,90.50
2018-10-02T04:21:10.844Z,90.90
2018-10-02T04:23:42.968Z,91.20
2018-10-02T04:26:14.826Z,91.50
2018-10-02T04:28:46.780Z,91.60
2018-10-02T04:31:18.635Z,91.50
2018-10-02T04:33:51.094Z,91.50
2018-10-02T04:36:23.173Z,91.40
2018-10-02T04:38:56.431Z,91.50
2018-10-02T04:41:29.902Z,91.70
2018-10-02T04:44:01.950Z,91.70
2018-10-02T04:46:33.911Z,91.50
2018-10-02T04:49:05.759Z,91.50
2018-10-02T04:51:38.008Z,91.40
2018-10-02T04:54:10.288Z,91.10
2018-10-02T04:56:42.350Z,91.30
2018-10-02T04:59:14.305Z,91.30
2018-10-02T05:01:46.846Z,91.40
2018-10-02T05:04:18.969Z,91.30
2018-10-02T05:06:51.132Z,91.30
2018-10-02T05:09:24.063Z,91.40
2018-10-02T05:11:56.201Z,91.40
2018-10-02T05:14:28.133Z,91.50
2018-10-02T05:16:59.893Z,91.60
2018-10-02T05:19:32.107Z,91.70
2018-10-02T05:22:04.162Z,91.70
2018-10-02T05:24:36.142Z,91.60
2018-10-02T05:27:09.114Z,91.70
2018-10-02T05:29:41.281Z,91.90
2018-10-02T05:32:13.327Z,91.90
2018-10-02T05:34:45.651Z,91.70
2018-10-02T05:37:18.546Z,91.90
2018-10-02T05:39:51.042Z,92.10
2018-10-02T05:42:23.395Z,92.40
2018-10-02T05:44:55.475Z,92.60
2018-10-02T05:47:27.492Z,92.80
2018-10-02T05:49:59.552Z,92.60
2018-10-02T05:52:31.742Z,92.60
2018-10-02T05:55:05.258Z,92.20
2018-10-02T05:57:38.620Z,91.70
2018-10-02T06:00:11.546Z,91.70
2018-10-02T06:02:44.055Z,90.50
2018-10-02T06:05:16.318Z,90.20
2018-10-02T06:07:48.341Z,90.10
2018-10-02T06:10:20.464Z,90.10
2018-10-02T06:12:52.112Z,90.30
2018-10-02T06:15:25.289Z,89.90
2018-10-02T06:17:57.784Z,88.70
2018-10-02T06:20:30.114Z,88.50
2018-10-02T06:25:38.552Z,88.30
2018-10-02T06:28:10.068Z,88.00
2018-10-02T06:30:42.401Z,88.40
2018-10-02T06:33:14.537Z,88.50
2018-10-02T06:35:47.056Z,88.30
2018-10-02T06:38:19.439Z,88.20
2018-10-02T06:40:51.464Z,87.40
2018-10-02T06:43:23.036Z,86.40
2018-10-02T06:45:56.106Z,86.10
2018-10-02T06:48:28.581Z,85.50
2018-10-02T06:51:00.651Z,85.30
2018-10-02T06:53:33.234Z,86.30
2018-10-02T06:56:05.621Z,84.90
2018-10-02T06:58:37.689Z,84.30
2018-10-02T07:01:09.579Z,82.70
2018-10-02T07:03:41.974Z,81.40
2018-10-02T07:06:14.590Z,81.50
2018-10-02T07:08:47.647Z,81.00
2018-10-02T07:11:19.802Z,80.40
2018-10-02T07:15:21.214Z,80.60
2018-10-02T07:17:54.636Z,79.90
2018-10-02T07:20:26.848Z,77.90
2018-10-02T07:22:58.840Z,77.30
2018-10-02T07:25:30.839Z,75.80
2018-10-02T07:28:02.946Z,75.20
2018-10-02T07:30:34.939Z,74.60
2018-10-02T07:33:07.112Z,74.00
2018-10-02T07:35:39.250Z,73.00
2018-10-02T07:38:11.608Z,72.80
2018-10-02T07:40:43.646Z,73.00
2018-10-02T07:43:15.288Z,73.30
2018-10-02T07:45:47.717Z,71.80
2018-10-02T07:48:19.869Z,71.50
2018-10-02T07:50:52.222Z,72.00
2018-10-02T07:53:24.197Z,72.20
2018-10-02T07:55:56.407Z,72.10
2018-10-02T07:58:28.036Z,72.60
2018-10-02T08:01:00.038Z,73.00
2018-10-02T08:03:32.297Z,72.50
2018-10-02T08:06:04.662Z,72.60
2018-10-02T08:08:37.982Z,72.30
2018-10-02T08:11:10.333Z,71.80
2018-10-02T08:13:42.353Z,69.60
2018-10-02T08:16:14.488Z,68.90
2018-10-02T08:18:46.924Z,69.30
2018-10-02T08:21:19.540Z,68.90
2018-10-02T08:23:55.591Z,69.70
2018-10-02T08:26:27.963Z,68.80
2018-10-02T08:29:00.054Z,67.70
2018-10-02T08:31:32.001Z,67.50
2018-10-02T08:34:03.567Z,67.60
2018-10-02T08:36:36.689Z,67.00
2018-10-02T08:39:11.207Z,66.00
2018-10-02T08:41:43.459Z,63.30
2018-10-02T08:44:15.435Z,63.50
2018-10-02T08:46:47.800Z,63.60
2018-10-02T08:49:20.782Z,63.30
2018-10-02T08:51:52.918Z,63.20
2018-10-02T08:54:24.833Z,64.50
2018-10-02T08:56:56.893Z,62.50
2018-10-02T08:59:29.068Z,62.80
2018-10-02T09:02:01.240Z,62.60
2018-10-02T09:04:33.300Z,62.60
2018-10-02T09:07:06.762Z,62.30
2018-10-02T09:09:38.864Z,62.30
2018-10-02T09:12:10.776Z,62.10
2018-10-02T09:14:43.453Z,61.70
2018-10-02T09:17:15.680Z,61.00
2018-10-02T09:19:47.804Z,61.30
2018-10-02T09:22:19.768Z,60.10
2018-10-02T09:24:52.033Z,58.80
2018-10-02T09:27:24.341Z,59.30
2018-10-02T09:30:00.782Z,59.00
2018-10-02T09:32:37.778Z,57.90
2018-10-02T09:35:14.797Z,58.50
2018-10-02T09:37:51.786Z,58.30
2018-10-02T09:40:28.626Z,57.20
2018-10-02T09:43:05.691Z,56.90
2018-10-02T09:45:37.382Z,57.20
2018-10-02T09:48:13.986Z,57.30
2018-10-02T09:50:46.133Z,57.80
2018-10-02T09:53:18.912Z,57.80
2018-10-02T09:55:51.007Z,57.10
2018-10-02T09:58:23.322Z,56.80
2018-10-02T10:01:00.183Z,56.60
2018-10-02T10:03:32.011Z,56.60
2018-10-02T10:06:03.932Z,55.90
2018-10-02T10:08:36.323Z,55.00
2018-10-02T10:11:08.463Z,56.20
2018-10-02T10:13:41.010Z,55.90
2018-10-02T10:16:12.952Z,55.50
2018-10-02T10:18:44.784Z,54.90
2018-10-02T10:21:17.427Z,55.40
2018-10-02T10:23:49.520Z,54.40
2018-10-02T10:26:21.702Z,54.10
2018-10-02T10:28:53.727Z,52.70
2018-10-02T10:31:25.975Z,53.30
2018-10-02T10:33:58.735Z,52.40
2018-10-02T10:36:30.986Z,52.90
2018-10-02T10:39:03.278Z,53.40
2018-10-02T10:41:35.436Z,53.30
2018-10-02T10:44:08.080Z,52.80
2018-10-02T10:46:40.222Z,52.90
2018-10-02T10:49:13.062Z,52.10
2018-10-02T10:51:45.428Z,52.50
2018-10-02T10:54:17.896Z,52.30
2018-10-02T10:56:50.303Z,51.30
2018-10-02T10:59:22.548Z,51.40
2018-10-02T11:01:54.884Z,50.70
2018-10-02T11:04:28.182Z,49.70
2018-10-02T11:07:00.815Z,49.00
2018-10-02T11:09:32.872Z,48.60
2018-10-02T11:12:05.052Z,48.60
2018-10-02T11:14:36.923Z,48.80
2018-10-02T11:17:09.056Z,48.60
2018-10-02T11:19:41.507Z,48.30
2018-10-02T11:22:13.484Z,48.50
2018-10-02T11:24:46.670Z,47.30
2018-10-02T11:27:18.996Z,47.70
2018-10-02T11:29:51.985Z,49.00
2018-10-02T11:32:24.081Z,47.00
2018-10-02T11:34:56.611Z,47.30
2018-10-02T11:37:28.852Z,47.00
2018-10-02T11:40:01.059Z,47.70
2018-10-02T11:42:33.685Z,47.50
2018-10-02T11:45:06.027Z,47.70
2018-10-02T11:47:38.421Z,48.20
2018-10-02T11:50:10.815Z,47.50
2018-10-02T11:52:44.032Z,45.90
2018-10-02T11:55:16.182Z,46.20
2018-10-02T11:57:48.716Z,46.50
2018-10-02T12:00:21.122Z,45.30
2018-10-02T12:02:53.857Z,46.20
2018-10-02T12:05:26.215Z,46.70
2018-10-02T12:07:58.310Z,46.30
2018-10-02T12:10:31.511Z,45.50
2018-10-02T12:13:03.807Z,46.50
2018-10-02T12:15:36.212Z,47.70
2018-10-02T12:18:08.305Z,47.10
2018-10-02T12:20:40.445Z,47.60
2018-10-02T12:23:13.268Z,47.90
2018-10-02T12:25:45.784Z,47.80
2018-10-02T12:28:18.073Z,47.20
2018-10-02T12:30:51.645Z,46.70
2018-10-02T12:33:24.074Z,46.10
2018-10-02T12:35:56.890Z,45.00
2018-10-02T12:38:29.586Z,44.70
2018-10-02T12:41:02.675Z,46.00
2018-10-02T12:43:34.914Z,46.10
2018-10-02T12:46:08.316Z,45.40
2018-10-02T12:48:40.653Z,45.70
2018-10-02T12:51:13.218Z,45.80
2018-10-02T12:53:45.801Z,45.20
2018-10-02T12:56:18.045Z,44.70
2018-10-02T12:58:50.443Z,44.60
2018-10-02T13:01:24.183Z,44.90
2018-10-02T13:03:57.002Z,45.10
2018-10-02T13:06:30.218Z,44.30
2018-10-02T13:09:02.179Z,43.60
2018-10-02T13:11:34.356Z,43.20
2018-10-02T13:14:06.861Z,42.60
2018-10-02T13:16:39.194Z,42.40
2018-10-02T13:19:11.125Z,43.70
2018-10-02T13:21:43.648Z,42.70
2018-10-02T13:24:15.853Z,42.80
2018-10-02T13:26:48.847Z,42.90
2018-10-02T13:29:21.430Z,43.20
2018-10-02T13:31:53.688Z,43.70
2018-10-02T13:34:26.030Z,43.60
2018-10-02T13:36:58.125Z,44.10
2018-10-02T13:39:30.554Z,44.90
2018-10-02T13:42:02.547Z,45.10
2018-10-02T13:44:34.961Z,44.10
2018-10-02T13:47:07.044Z,44.50
2018-10-02T13:49:39.475Z,45.00
2018-10-02T13:52:11.794Z,45.10
2018-10-02T13:54:45.701Z,44.80
2018-10-02T13:57:17.696Z,44.90
2018-10-02T13:59:50.002Z,45.10
2018-10-02T14:02:22.354Z,46.40
2018-10-02T14:04:54.145Z,47.70
2018-10-02T14:07:26.444Z,49.00
2018-10-02T14:09:58.808Z,49.70
2018-10-02T14:12:31.211Z,49.30
2018-10-02T14:15:04.051Z,49.40
2018-10-02T14:17:36.390Z,47.20
2018-10-02T14:20:08.891Z,49.30
2018-10-02T14:22:41.082Z,49.80
2018-10-02T14:25:13.928Z,49.30
2018-10-02T14:27:46.286Z,50.70
2018-10-02T14:30:18.310Z,49.80
2018-10-02T14:32:50.297Z,49.20
2018-10-02T14:35:22.426Z,50.50
2018-10-02T14:37:54.683Z,51.60
2018-10-02T14:40:27.117Z,53.00
2018-10-02T14:42:59.397Z,54.70
2018-10-02T14:45:31.809Z,54.90
2018-10-02T14:48:04.249Z,54.30
2018-10-02T14:50:37.706Z,53.70
2018-10-02T14:53:09.880Z,53.60
2018-10-02T14:55:42.161Z,56.20
2018-10-02T14:58:14.733Z,56.30
2018-10-02T15:00:47.654Z,56.50
2018-10-02T15:03:19.940Z,55.50
2018-10-02T15:05:52.193Z,55.90
2018-10-02T15:08:24.663Z,55.20
2018-10-02T15:10:57.168Z,56.10
2018-10-02T15:13:29.420Z,57.40
2018-10-02T15:16:01.825Z,58.20
2018-10-02T15:18:34.537Z,58.00
2018-10-02T15:21:07.352Z,57.50
2018-10-02T15:23:39.587Z,57.40
2018-10-02T15:26:13.076Z,57.70
2018-10-02T15:28:45.203Z,58.50
2018-10-02T15:31:17.369Z,60.90
2018-10-02T15:33:49.458Z,59.80
2018-10-02T15:36:21.583Z,59.80
2018-10-02T15:38:53.891Z,59.70
2018-10-02T15:41:26.435Z,60.00
2018-10-02T15:43:58.392Z,59.20
2018-10-02T15:46:30.728Z,58.80
2018-10-02T15:49:02.612Z,57.80
2018-10-02T15:51:34.609Z,57.50
2018-10-02T15:54:06.666Z,57.90
2018-10-02T15:56:38.769Z,59.70
2018-10-02T15:59:11.308Z,59.50
2018-10-02T16:01:43.618Z,57.80
2018-10-02T16:04:15.916Z,57.10
2018-10-02T16:06:48.917Z,55.60
2018-10-02T16:09:20.616Z,55.50
2018-10-02T16:11:53.267Z,56.00
2018-10-02T16:14:25.257Z,55.20
2018-10-02T16:16:57.400Z,55.60
2018-10-02T16:19:29.732Z,56.30
2018-10-02T16:22:03.114Z,57.30
2018-10-02T16:24:35.317Z,57.40
2018-10-02T16:27:07.115Z,56.50
2018-10-02T16:29:39.379Z,57.80
2018-10-02T16:32:12.231Z,57.80
2018-10-02T16:34:49.293Z,58.40
2018-10-02T16:37:17.932Z,58.80
2018-10-02T16:39:50.307Z,59.30
2018-10-02T16:42:22.855Z,59.70
2018-10-02T16:44:55.113Z,59.50
2018-10-02T16:47:27.302Z,59.30
2018-10-02T16:49:59.536Z,59.60
2018-10-02T16:52:31.945Z,60.10
2018-10-02T16:55:04.132Z,60.50
2018-10-02T16:57:36.354Z,60.50
2018-10-02T17:00:09.456Z,59.90
2018-10-02T17:02:41.803Z,59.40
2018-10-02T17:05:14.147Z,59.30
2018-10-02T17:07:46.121Z,59.30
2018-10-02T17:10:18.146Z,59.50
2018-10-02T17:12:50.408Z,60.00
2018-10-02T17:15:22.566Z,60.10
2018-10-02T17:17:54.429Z,60.50
2018-10-02T17:20:26.535Z,60.80
2018-10-02T17:22:58.776Z,61.00
2018-10-02T17:25:31.036Z,61.40
2018-10-02T17:28:03.339Z,61.70
2018-10-02T17:30:35.803Z,62.10
2018-10-02T17:33:07.654Z,62.50
2018-10-02T17:35:40.471Z,62.50
2018-10-02T17:38:12.869Z,62.80
2018-10-02T17:40:45.207Z,63.10
2018-10-02T17:43:17.486Z,63.60
2018-10-02T17:45:50.121Z,63.70
2018-10-02T17:48:22.675Z,63.80
2018-10-02T17:50:54.455Z,64.80
2018-10-02T17:53:27.002Z,64.10
2018-10-02T17:55:59.164Z,64.30
2018-10-02T17:58:31.511Z,64.60
2018-10-02T18:01:03.903Z,64.80
2018-10-02T18:03:36.163Z,65.70
2018-10-02T18:06:08.630Z,65.30
2018-10-02T18:08:41.938Z,65.80
2018-10-02T18:11:14.548Z,66.40
2018-10-02T18:13:47.871Z,66.60
2018-10-02T18:16:20.718Z,66.90
2018-10-02T18:18:53.833Z,67.30
2018-10-02T18:21:26.761Z,67.70
2018-10-02T18:23:59.577Z,67.20
2018-10-02T18:26:31.360Z,67.70
2018-10-02T18:29:04.412Z,67.90
2018-10-02T18:31:37.670Z,68.40
2018-10-02T18:34:09.820Z,68.50
2018-10-02T18:36:42.097Z,68.70
2018-10-02T18:39:15.013Z,69.00
2018-10-02T18:41:47.686Z,69.20
2018-10-02T18:44:19.312Z,69.50
2018-10-02T18:46:52.140Z,69.80
2018-10-02T18:49:26.431Z,70.00
2018-10-02T18:51:59.236Z,70.50
2018-10-02T18:54:32.066Z,70.50
2018-10-02T18:57:04.393Z,70.80
2018-10-02T18:59:36.761Z,70.90
2018-10-02T19:02:08.969Z,71.00
2018-10-02T19:04:40.848Z,71.10
2018-10-02T19:07:13.200Z,71.30
2018-10-02T19:09:46.071Z,71.50
2018-10-02T19:12:21.621Z,71.70
2018-10-02T19:14:53.704Z,71.70
2018-10-02T19:17:26.224Z,72.00
2018-10-02T19:20:02.885Z,72.90
2018-10-02T19:22:35.132Z,72.20
2018-10-02T19:25:12.066Z,72.40
2018-10-02T19:27:44.296Z,72.70
2018-10-02T19:30:21.637Z,73.20
2018-10-02T19:32:54.113Z,73.50
2018-10-02T19:35:26.365Z,74.50
2018-10-02T19:38:03.025Z,74.10
2018-10-02T19:40:35.703Z,74.20
2018-10-02T19:43:08.019Z,75.10
2018-10-02T19:45:45.144Z,74.60
2018-10-02T19:48:17.422Z,75.00
2018-10-02T19:50:49.863Z,74.70
2018-10-02T19:53:22.738Z,74.80
2018-10-02T19:55:54.356Z,75.20
2018-10-02T19:58:26.253Z,75.70
2018-10-02T20:00:59.181Z,75.90
2018-10-02T20:03:31.473Z,76.00
2018-10-02T20:06:03.671Z,76.40
2018-10-02T20:08:35.542Z,76.50
2018-10-02T20:11:09.046Z,77.40
2018-10-02T20:13:41.265Z,77.00
2018-10-02T20:16:14.512Z,77.40
2018-10-02T20:18:46.555Z,77.60
2018-10-02T20:21:18.589Z,77.90
2018-10-02T20:23:51.158Z,77.90
2018-10-02T20:26:23.055Z,77.90
2018-10-02T20:28:56.133Z,77.90
2018-10-02T20:31:29.977Z,78.00
2018-10-02T20:34:01.488Z,78.40
2018-10-02T20:36:33.911Z,78.50
2018-10-02T20:39:07.023Z,79.50
2018-10-02T20:41:39.070Z,79.10
2018-10-02T20:44:11.066Z,79.50
2018-10-02T20:46:43.002Z,79.80
2018-10-02T20:49:15.009Z,80.20
2018-10-02T20:51:47.345Z,80.40
2018-10-02T20:54:19.436Z,80.60
2018-10-02T20:56:51.440Z,80.90
2018-10-02T20:59:23.824Z,80.90
2018-10-02T21:01:55.880Z,81.30
2018-10-02T21:04:28.138Z,81.50
2018-10-02T21:07:00.259Z,81.60
2018-10-02T21:09:32.468Z,81.60
2018-10-02T21:12:04.698Z,81.80
2018-10-02T21:14:36.653Z,82.00
2018-10-02T21:17:08.681Z,82.00
2018-10-02T21:19:41.256Z,82.20
2018-10-02T21:22:13.424Z,82.10
2018-10-02T21:24:45.755Z,82.10
2018-10-02T21:27:17.731Z,82.20
2018-10-02T21:29:49.618Z,82.50
2018-10-02T21:32:22.548Z,82.60
2018-10-02T21:34:55.193Z,82.60
2018-10-02T21:37:27.164Z,82.90
2018-10-02T21:39:59.194Z,83.20
2018-10-02T21:42:31.704Z,83.20
2018-10-02T21:45:03.627Z,83.20
2018-10-02T21:47:36.567Z,83.40
2018-10-02T21:50:08.391Z,83.20
2018-10-02T21:52:40.453Z,83.20
2018-10-02T21:55:13.362Z,83.10
2018-10-02T21:57:45.862Z,83.20
2018-10-02T22:00:18.838Z,83.00
2018-10-02T22:02:50.752Z,83.20
2018-10-02T22:05:22.679Z,83.30
2018-10-02T22:07:54.918Z,83.40
2018-10-02T22:10:27.110Z,83.50
2018-10-02T22:12:59.235Z,83.30
2018-10-02T22:15:31.142Z,83.40
2018-10-02T22:18:03.522Z,83.60
2018-10-02T22:20:35.621Z,83.40
2018-10-02T22:23:08.018Z,83.50
2018-10-02T22:25:40.703Z,83.60
2018-10-02T22:28:13.223Z,83.60
2018-10-02T22:30:45.073Z,83.70
2018-10-02T22:33:17.499Z,84.00
2018-10-02T22:35:49.558Z,84.00
2018-10-02T22:38:22.686Z,83.70
2018-10-02T22:40:54.665Z,83.70
2018-10-02T22:43:26.952Z,83.60
2018-10-02T22:45:59.048Z,83.90
2018-10-02T22:48:31.052Z,83.90
2018-10-02T22:51:02.737Z,83.90
2018-10-02T22:53:34.933Z,83.90
2018-10-02T22:56:07.181Z,84.10
2018-10-02T22:58:39.236Z,84.10
2018-10-02T23:01:11.467Z,84.10
2018-10-02T23:03:44.825Z,84.30
2018-10-02T23:06:16.569Z,84.40
2018-10-02T23:08:49.120Z,84.60
2018-10-02T23:11:21.258Z,84.80
2018-10-02T23:13:54.165Z,84.90
2018-10-02T23:16:28.023Z,84.90
2018-10-02T23:19:00.512Z,84.90
2018-10-02T23:21:32.678Z,85.10
2018-10-02T23:24:05.950Z,85.10
2018-10-02T23:26:37.968Z,84.80
2018-10-02T23:29:10.344Z,84.80
2018-10-02T23:31:42.586Z,84.80
2018-10-02T23:34:15.017Z,84.70
2018-10-02T23:36:46.979Z,85.60
2018-10-02T23:39:19.741Z,85.00
2018-10-02T23:41:52.641Z,85.10
2018-10-02T23:44:24.362Z,85.00
2018-10-02T23:46:56.375Z,84.90
2018-10-02T23:49:28.492Z,84.80
2018-10-02T23:52:01.321Z,85.00
2018-10-02T23:54:33.596Z,84.70
2018-10-02T23:57:05.357Z,84.60
2018-10-02T23:59:37.365Z,84.50
